sensor_id;sensor_type;location;lat;lon;timestamp;P1;durP1;ratioP1;P2;durP2;ratioP2
25123;SDS011;13104;51.030;4.686;2022-09-17T00:01:04;11.82;;;2.88;;
25123;SDS011;13104;51.030;4.686;2022-09-17T00:03:30;14.20;;;2.38;;
25123;SDS011;13104;51.030;4.686;2022-09-17T00:06:00;10.32;;;2.05;;
25123;SDS011;13104;51.030;4.686;2022-09-17T00:08:28;8.65;;;2.15;;
25123;SDS011;13104;51.030;4.686;2022-09-17T00:10:54;12.95;;;2.33;;
25123;SDS011;13104;51.030;4.686;2022-09-17T00:13:23;14.43;;;2.20;;
25123;SDS011;13104;51.030;4.686;2022-09-17T00:16:10;15.60;;;2.42;;
25123;SDS011;13104;51.030;4.686;2022-09-17T00:18:36;15.00;;;2.25;;
25123;SDS011;13104;51.030;4.686;2022-09-17T00:21:05;11.70;;;1.90;;
25123;SDS011;13104;51.030;4.686;2022-09-17T00:23:31;14.75;;;1.98;;
25123;SDS011;13104;51.030;4.686;2022-09-17T00:25:58;10.82;;;2.10;;
25123;SDS011;13104;51.030;4.686;2022-09-17T00:28:24;11.07;;;1.83;;
25123;SDS011;13104;51.030;4.686;2022-09-17T00:30:50;10.43;;;1.85;;
25123;SDS011;13104;51.030;4.686;2022-09-17T00:33:16;8.65;;;2.08;;
25123;SDS011;13104;51.030;4.686;2022-09-17T00:35:44;12.40;;;2.15;;
25123;SDS011;13104;51.030;4.686;2022-09-17T00:38:10;12.90;;;2.05;;
25123;SDS011;13104;51.030;4.686;2022-09-17T00:40:36;11.48;;;1.98;;
25123;SDS011;13104;51.030;4.686;2022-09-17T00:43:03;10.95;;;1.70;;
25123;SDS011;13104;51.030;4.686;2022-09-17T00:45:29;11.60;;;2.35;;
25123;SDS011;13104;51.030;4.686;2022-09-17T00:48:03;6.50;;;2.13;;
25123;SDS011;13104;51.030;4.686;2022-09-17T00:50:35;10.77;;;1.98;;
25123;SDS011;13104;51.030;4.686;2022-09-17T00:53:07;9.38;;;2.38;;
25123;SDS011;13104;51.030;4.686;2022-09-17T00:55:38;12.85;;;2.15;;
25123;SDS011;13104;51.030;4.686;2022-09-17T00:58:06;8.95;;;2.08;;
25123;SDS011;13104;51.030;4.686;2022-09-17T01:00:33;12.93;;;2.25;;
25123;SDS011;13104;51.030;4.686;2022-09-17T01:02:59;9.68;;;2.20;;
25123;SDS011;13104;51.030;4.686;2022-09-17T01:10:54;12.20;;;2.80;;
25123;SDS011;13104;51.030;4.686;2022-09-17T01:16:05;13.07;;;2.80;;
25123;SDS011;13104;51.030;4.686;2022-09-17T01:29:12;16.02;;;2.60;;
25123;SDS011;13104;51.030;4.686;2022-09-17T01:36:56;15.55;;;2.30;;
25123;SDS011;13104;51.030;4.686;2022-09-17T01:42:05;14.13;;;2.25;;
25123;SDS011;13104;51.030;4.686;2022-09-17T01:47:11;11.88;;;1.88;;
25123;SDS011;13104;51.030;4.686;2022-09-17T01:49:40;11.52;;;2.40;;
25123;SDS011;13104;51.030;4.686;2022-09-17T01:52:09;12.10;;;2.10;;
25123;SDS011;13104;51.030;4.686;2022-09-17T01:54:45;15.13;;;2.58;;
25123;SDS011;13104;51.030;4.686;2022-09-17T01:57:16;13.98;;;2.13;;
25123;SDS011;13104;51.030;4.686;2022-09-17T01:59:47;7.88;;;1.73;;
25123;SDS011;13104;51.030;4.686;2022-09-17T02:02:15;12.05;;;2.20;;
25123;SDS011;13104;51.030;4.686;2022-09-17T02:04:47;13.60;;;2.00;;
25123;SDS011;13104;51.030;4.686;2022-09-17T02:07:17;10.88;;;2.05;;
25123;SDS011;13104;51.030;4.686;2022-09-17T02:09:58;9.82;;;1.70;;
25123;SDS011;13104;51.030;4.686;2022-09-17T02:12:30;15.35;;;2.10;;
25123;SDS011;13104;51.030;4.686;2022-09-17T02:14:59;12.55;;;2.17;;
25123;SDS011;13104;51.030;4.686;2022-09-17T02:17:31;15.40;;;2.33;;
25123;SDS011;13104;51.030;4.686;2022-09-17T02:20:00;10.65;;;1.52;;
25123;SDS011;13104;51.030;4.686;2022-09-17T02:22:40;17.73;;;1.90;;
25123;SDS011;13104;51.030;4.686;2022-09-17T02:30:18;12.18;;;1.90;;
25123;SDS011;13104;51.030;4.686;2022-09-17T02:32:44;8.40;;;1.92;;
25123;SDS011;13104;51.030;4.686;2022-09-17T02:35:11;15.40;;;2.58;;
25123;SDS011;13104;51.030;4.686;2022-09-17T02:37:40;8.23;;;1.80;;
25123;SDS011;13104;51.030;4.686;2022-09-17T02:40:06;10.15;;;1.95;;
25123;SDS011;13104;51.030;4.686;2022-09-17T02:45:27;12.63;;;2.22;;
25123;SDS011;13104;51.030;4.686;2022-09-17T03:00:31;13.88;;;2.40;;
25123;SDS011;13104;51.030;4.686;2022-09-17T03:05:24;15.95;;;2.20;;
25123;SDS011;13104;51.030;4.686;2022-09-17T03:07:53;13.48;;;2.63;;
25123;SDS011;13104;51.030;4.686;2022-09-17T03:10:20;15.73;;;2.60;;
25123;SDS011;13104;51.030;4.686;2022-09-17T03:12:46;15.02;;;2.35;;
25123;SDS011;13104;51.030;4.686;2022-09-17T03:15:12;14.50;;;2.28;;
25123;SDS011;13104;51.030;4.686;2022-09-17T03:17:38;11.48;;;2.47;;
25123;SDS011;13104;51.030;4.686;2022-09-17T03:20:05;12.35;;;2.33;;
25123;SDS011;13104;51.030;4.686;2022-09-17T03:22:31;13.82;;;2.15;;
25123;SDS011;13104;51.030;4.686;2022-09-17T03:24:57;14.63;;;2.22;;
25123;SDS011;13104;51.030;4.686;2022-09-17T03:27:23;12.25;;;2.22;;
25123;SDS011;13104;51.030;4.686;2022-09-17T03:29:49;14.60;;;2.38;;
25123;SDS011;13104;51.030;4.686;2022-09-17T03:32:15;14.68;;;2.55;;
25123;SDS011;13104;51.030;4.686;2022-09-17T03:34:41;16.15;;;2.10;;
25123;SDS011;13104;51.030;4.686;2022-09-17T03:37:07;13.40;;;2.53;;
25123;SDS011;13104;51.030;4.686;2022-09-17T03:39:33;15.98;;;2.85;;
25123;SDS011;13104;51.030;4.686;2022-09-17T03:42:00;12.45;;;2.22;;
25123;SDS011;13104;51.030;4.686;2022-09-17T03:44:26;12.20;;;2.25;;
25123;SDS011;13104;51.030;4.686;2022-09-17T03:46:52;8.48;;;2.17;;
25123;SDS011;13104;51.030;4.686;2022-09-17T03:49:18;12.77;;;2.63;;
25123;SDS011;13104;51.030;4.686;2022-09-17T03:51:44;12.45;;;2.10;;
25123;SDS011;13104;51.030;4.686;2022-09-17T03:54:11;17.75;;;2.70;;
25123;SDS011;13104;51.030;4.686;2022-09-17T03:56:37;9.90;;;2.42;;
25123;SDS011;13104;51.030;4.686;2022-09-17T03:59:03;16.25;;;2.20;;
25123;SDS011;13104;51.030;4.686;2022-09-17T04:01:29;19.80;;;2.42;;
25123;SDS011;13104;51.030;4.686;2022-09-17T04:03:55;16.63;;;2.50;;
25123;SDS011;13104;51.030;4.686;2022-09-17T04:06:22;13.50;;;1.95;;
25123;SDS011;13104;51.030;4.686;2022-09-17T04:08:48;9.80;;;1.90;;
25123;SDS011;13104;51.030;4.686;2022-09-17T04:11:14;20.45;;;2.65;;
25123;SDS011;13104;51.030;4.686;2022-09-17T04:13:40;13.93;;;2.70;;
25123;SDS011;13104;51.030;4.686;2022-09-17T04:16:06;17.92;;;3.10;;
25123;SDS011;13104;51.030;4.686;2022-09-17T04:18:32;17.05;;;2.45;;
25123;SDS011;13104;51.030;4.686;2022-09-17T04:20:59;15.95;;;2.38;;
25123;SDS011;13104;51.030;4.686;2022-09-17T04:23:25;13.88;;;2.35;;
25123;SDS011;13104;51.030;4.686;2022-09-17T04:25:51;14.10;;;2.83;;
25123;SDS011;13104;51.030;4.686;2022-09-17T04:28:17;18.25;;;2.60;;
25123;SDS011;13104;51.030;4.686;2022-09-17T04:30:43;13.68;;;2.58;;
25123;SDS011;13104;51.030;4.686;2022-09-17T04:33:09;19.88;;;2.75;;
25123;SDS011;13104;51.030;4.686;2022-09-17T04:35:36;16.65;;;2.50;;
25123;SDS011;13104;51.030;4.686;2022-09-17T04:38:02;15.38;;;2.50;;
25123;SDS011;13104;51.030;4.686;2022-09-17T04:40:28;30.73;;;4.15;;
25123;SDS011;13104;51.030;4.686;2022-09-17T04:42:54;16.90;;;2.63;;
25123;SDS011;13104;51.030;4.686;2022-09-17T04:45:23;24.30;;;3.08;;
25123;SDS011;13104;51.030;4.686;2022-09-17T04:47:49;22.88;;;3.22;;
25123;SDS011;13104;51.030;4.686;2022-09-17T04:50:16;15.20;;;2.55;;
25123;SDS011;13104;51.030;4.686;2022-09-17T04:52:43;20.02;;;3.42;;
25123;SDS011;13104;51.030;4.686;2022-09-17T04:55:09;14.00;;;2.92;;
25123;SDS011;13104;51.030;4.686;2022-09-17T04:57:35;19.40;;;3.33;;
25123;SDS011;13104;51.030;4.686;2022-09-17T05:00:02;21.92;;;3.15;;
25123;SDS011;13104;51.030;4.686;2022-09-17T05:02:29;16.45;;;2.90;;
25123;SDS011;13104;51.030;4.686;2022-09-17T05:04:55;19.48;;;3.28;;
25123;SDS011;13104;51.030;4.686;2022-09-17T05:07:22;18.30;;;3.25;;
25123;SDS011;13104;51.030;4.686;2022-09-17T05:09:48;20.75;;;3.03;;
25123;SDS011;13104;51.030;4.686;2022-09-17T05:12:14;22.52;;;3.17;;
25123;SDS011;13104;51.030;4.686;2022-09-17T05:14:40;22.05;;;2.65;;
25123;SDS011;13104;51.030;4.686;2022-09-17T05:17:06;18.13;;;3.15;;
25123;SDS011;13104;51.030;4.686;2022-09-17T05:19:32;20.02;;;2.65;;
25123;SDS011;13104;51.030;4.686;2022-09-17T05:21:58;22.15;;;2.80;;
25123;SDS011;13104;51.030;4.686;2022-09-17T05:24:25;21.70;;;2.97;;
25123;SDS011;13104;51.030;4.686;2022-09-17T05:26:51;19.17;;;2.83;;
25123;SDS011;13104;51.030;4.686;2022-09-17T05:29:17;14.13;;;3.08;;
25123;SDS011;13104;51.030;4.686;2022-09-17T05:31:43;18.25;;;2.60;;
25123;SDS011;13104;51.030;4.686;2022-09-17T05:34:11;12.77;;;2.90;;
25123;SDS011;13104;51.030;4.686;2022-09-17T05:36:37;20.23;;;3.35;;
25123;SDS011;13104;51.030;4.686;2022-09-17T05:39:03;13.48;;;2.17;;
25123;SDS011;13104;51.030;4.686;2022-09-17T05:41:29;15.35;;;2.70;;
25123;SDS011;13104;51.030;4.686;2022-09-17T05:43:55;15.85;;;2.45;;
25123;SDS011;13104;51.030;4.686;2022-09-17T05:46:21;14.65;;;2.05;;
25123;SDS011;13104;51.030;4.686;2022-09-17T05:48:47;14.88;;;2.70;;
25123;SDS011;13104;51.030;4.686;2022-09-17T05:51:13;13.98;;;2.45;;
25123;SDS011;13104;51.030;4.686;2022-09-17T05:53:42;14.57;;;2.50;;
25123;SDS011;13104;51.030;4.686;2022-09-17T05:56:10;16.42;;;2.67;;
25123;SDS011;13104;51.030;4.686;2022-09-17T05:58:37;16.63;;;2.55;;
25123;SDS011;13104;51.030;4.686;2022-09-17T06:01:03;15.55;;;2.03;;
25123;SDS011;13104;51.030;4.686;2022-09-17T06:03:30;13.77;;;2.60;;
25123;SDS011;13104;51.030;4.686;2022-09-17T06:05:59;11.75;;;1.98;;
25123;SDS011;13104;51.030;4.686;2022-09-17T06:08:28;13.07;;;2.38;;
25123;SDS011;13104;51.030;4.686;2022-09-17T06:10:55;14.00;;;2.33;;
25123;SDS011;13104;51.030;4.686;2022-09-17T06:13:24;10.55;;;1.83;;
25123;SDS011;13104;51.030;4.686;2022-09-17T06:15:59;9.68;;;2.05;;
25123;SDS011;13104;51.030;4.686;2022-09-17T06:18:30;15.23;;;2.10;;
25123;SDS011;13104;51.030;4.686;2022-09-17T06:20:58;12.15;;;2.20;;
25123;SDS011;13104;51.030;4.686;2022-09-17T06:23:27;15.43;;;1.98;;
25123;SDS011;13104;51.030;4.686;2022-09-17T06:25:59;12.10;;;2.22;;
25123;SDS011;13104;51.030;4.686;2022-09-17T06:28:28;11.63;;;2.20;;
25123;SDS011;13104;51.030;4.686;2022-09-17T06:31:02;12.63;;;2.65;;
25123;SDS011;13104;51.030;4.686;2022-09-17T06:33:30;8.15;;;1.70;;
25123;SDS011;13104;51.030;4.686;2022-09-17T06:36:01;11.30;;;2.03;;
25123;SDS011;13104;51.030;4.686;2022-09-17T06:38:29;13.00;;;2.10;;
25123;SDS011;13104;51.030;4.686;2022-09-17T06:40:55;10.48;;;1.83;;
25123;SDS011;13104;51.030;4.686;2022-09-17T06:43:21;11.95;;;2.10;;
25123;SDS011;13104;51.030;4.686;2022-09-17T06:45:55;10.55;;;2.15;;
25123;SDS011;13104;51.030;4.686;2022-09-17T06:48:22;7.45;;;1.50;;
25123;SDS011;13104;51.030;4.686;2022-09-17T06:50:48;11.88;;;1.98;;
25123;SDS011;13104;51.030;4.686;2022-09-17T06:53:14;14.73;;;2.13;;
25123;SDS011;13104;51.030;4.686;2022-09-17T06:55:41;14.43;;;2.00;;
25123;SDS011;13104;51.030;4.686;2022-09-17T06:58:07;14.20;;;2.15;;
25123;SDS011;13104;51.030;4.686;2022-09-17T07:00:33;18.92;;;2.70;;
25123;SDS011;13104;51.030;4.686;2022-09-17T07:03:00;10.88;;;2.00;;
25123;SDS011;13104;51.030;4.686;2022-09-17T07:05:27;22.00;;;3.17;;
25123;SDS011;13104;51.030;4.686;2022-09-17T07:07:54;13.48;;;2.28;;
25123;SDS011;13104;51.030;4.686;2022-09-17T07:10:21;15.55;;;2.50;;
25123;SDS011;13104;51.030;4.686;2022-09-17T07:12:47;13.68;;;2.78;;
25123;SDS011;13104;51.030;4.686;2022-09-17T07:15:13;17.75;;;2.88;;
25123;SDS011;13104;51.030;4.686;2022-09-17T07:17:40;14.65;;;2.42;;
25123;SDS011;13104;51.030;4.686;2022-09-17T07:20:07;15.48;;;3.10;;
25123;SDS011;13104;51.030;4.686;2022-09-17T07:22:33;9.35;;;2.13;;
25123;SDS011;13104;51.030;4.686;2022-09-17T07:24:59;16.50;;;2.92;;
25123;SDS011;13104;51.030;4.686;2022-09-17T07:27:26;16.15;;;2.53;;
25123;SDS011;13104;51.030;4.686;2022-09-17T07:29:52;25.35;;;3.85;;
25123;SDS011;13104;51.030;4.686;2022-09-17T07:32:18;12.93;;;2.55;;
25123;SDS011;13104;51.030;4.686;2022-09-17T07:34:44;17.75;;;2.55;;
25123;SDS011;13104;51.030;4.686;2022-09-17T07:37:10;18.60;;;2.58;;
25123;SDS011;13104;51.030;4.686;2022-09-17T07:39:37;13.20;;;2.60;;
25123;SDS011;13104;51.030;4.686;2022-09-17T07:42:03;15.48;;;2.75;;
25123;SDS011;13104;51.030;4.686;2022-09-17T07:44:29;18.15;;;3.28;;
25123;SDS011;13104;51.030;4.686;2022-09-17T07:46:55;14.57;;;2.55;;
25123;SDS011;13104;51.030;4.686;2022-09-17T07:49:22;13.68;;;2.60;;
25123;SDS011;13104;51.030;4.686;2022-09-17T07:51:48;16.02;;;2.45;;
25123;SDS011;13104;51.030;4.686;2022-09-17T07:54:14;12.00;;;2.92;;
25123;SDS011;13104;51.030;4.686;2022-09-17T07:56:41;12.35;;;2.25;;
25123;SDS011;13104;51.030;4.686;2022-09-17T07:59:08;17.90;;;2.53;;
25123;SDS011;13104;51.030;4.686;2022-09-17T08:01:34;19.30;;;2.53;;
25123;SDS011;13104;51.030;4.686;2022-09-17T08:04:03;12.18;;;2.00;;
25123;SDS011;13104;51.030;4.686;2022-09-17T08:06:30;12.40;;;2.65;;
25123;SDS011;13104;51.030;4.686;2022-09-17T08:08:57;17.60;;;2.72;;
25123;SDS011;13104;51.030;4.686;2022-09-17T08:11:27;14.57;;;2.55;;
25123;SDS011;13104;51.030;4.686;2022-09-17T08:13:54;14.77;;;2.55;;
25123;SDS011;13104;51.030;4.686;2022-09-17T08:16:20;13.95;;;2.42;;
25123;SDS011;13104;51.030;4.686;2022-09-17T08:18:47;18.27;;;2.65;;
25123;SDS011;13104;51.030;4.686;2022-09-17T08:21:14;15.77;;;2.13;;
25123;SDS011;13104;51.030;4.686;2022-09-17T08:23:42;9.27;;;2.25;;
25123;SDS011;13104;51.030;4.686;2022-09-17T08:26:18;13.07;;;1.73;;
25123;SDS011;13104;51.030;4.686;2022-09-17T08:28:47;9.20;;;2.17;;
25123;SDS011;13104;51.030;4.686;2022-09-17T08:31:14;9.50;;;1.83;;
25123;SDS011;13104;51.030;4.686;2022-09-17T08:33:41;9.88;;;1.70;;
25123;SDS011;13104;51.030;4.686;2022-09-17T08:36:08;15.38;;;2.47;;
25123;SDS011;13104;51.030;4.686;2022-09-17T08:38:35;11.68;;;2.47;;
25123;SDS011;13104;51.030;4.686;2022-09-17T08:43:49;12.38;;;2.60;;
25123;SDS011;13104;51.030;4.686;2022-09-17T08:46:18;10.00;;;2.10;;
25123;SDS011;13104;51.030;4.686;2022-09-17T08:48:49;15.77;;;2.80;;
25123;SDS011;13104;51.030;4.686;2022-09-17T08:56:34;11.75;;;1.70;;
25123;SDS011;13104;51.030;4.686;2022-09-17T09:04:10;16.30;;;2.05;;
25123;SDS011;13104;51.030;4.686;2022-09-17T09:06:45;9.77;;;1.50;;
25123;SDS011;13104;51.030;4.686;2022-09-17T09:09:13;12.80;;;2.20;;
25123;SDS011;13104;51.030;4.686;2022-09-17T09:11:39;13.68;;;2.35;;
25123;SDS011;13104;51.030;4.686;2022-09-17T09:16:42;11.25;;;2.05;;
25123;SDS011;13104;51.030;4.686;2022-09-17T09:22:13;8.52;;;1.60;;
25123;SDS011;13104;51.030;4.686;2022-09-17T09:27:20;8.68;;;1.70;;
25123;SDS011;13104;51.030;4.686;2022-09-17T09:34:42;14.10;;;2.13;;
25123;SDS011;13104;51.030;4.686;2022-09-17T09:37:18;10.18;;;2.10;;
25123;SDS011;13104;51.030;4.686;2022-09-17T09:39:46;12.27;;;1.80;;
25123;SDS011;13104;51.030;4.686;2022-09-17T09:44:44;9.30;;;1.60;;
25123;SDS011;13104;51.030;4.686;2022-09-17T09:47:13;8.07;;;1.73;;
25123;SDS011;13104;51.030;4.686;2022-09-17T09:57:46;8.30;;;1.58;;
25123;SDS011;13104;51.030;4.686;2022-09-17T10:02:45;8.90;;;1.63;;
25123;SDS011;13104;51.030;4.686;2022-09-17T10:05:12;5.90;;;1.50;;
25123;SDS011;13104;51.030;4.686;2022-09-17T10:07:42;11.32;;;1.80;;
25123;SDS011;13104;51.030;4.686;2022-09-17T10:10:08;4.28;;;1.20;;
25123;SDS011;13104;51.030;4.686;2022-09-17T10:12:35;6.65;;;1.48;;
25123;SDS011;13104;51.030;4.686;2022-09-17T10:17:46;6.95;;;1.50;;
25123;SDS011;13104;51.030;4.686;2022-09-17T10:20:13;8.52;;;1.60;;
25123;SDS011;13104;51.030;4.686;2022-09-17T10:22:44;4.60;;;1.00;;
25123;SDS011;13104;51.030;4.686;2022-09-17T10:25:27;6.00;;;0.90;;
25123;SDS011;13104;51.030;4.686;2022-09-17T10:27:55;3.83;;;1.00;;
25123;SDS011;13104;51.030;4.686;2022-09-17T10:30:22;5.22;;;1.13;;
25123;SDS011;13104;51.030;4.686;2022-09-17T10:33:09;5.05;;;1.02;;
25123;SDS011;13104;51.030;4.686;2022-09-17T10:35:37;4.35;;;1.10;;
25123;SDS011;13104;51.030;4.686;2022-09-17T10:38:03;5.85;;;0.90;;
25123;SDS011;13104;51.030;4.686;2022-09-17T10:40:30;6.32;;;0.90;;
25123;SDS011;13104;51.030;4.686;2022-09-17T10:45:41;2.92;;;0.80;;
25123;SDS011;13104;51.030;4.686;2022-09-17T10:48:13;5.22;;;0.95;;
25123;SDS011;13104;51.030;4.686;2022-09-17T10:50:40;5.18;;;0.88;;
25123;SDS011;13104;51.030;4.686;2022-09-17T10:53:14;3.75;;;0.90;;
25123;SDS011;13104;51.030;4.686;2022-09-17T10:55:43;6.70;;;1.15;;
25123;SDS011;13104;51.030;4.686;2022-09-17T11:06:04;5.95;;;1.15;;
25123;SDS011;13104;51.030;4.686;2022-09-17T11:11:09;3.30;;;1.00;;
25123;SDS011;13104;51.030;4.686;2022-09-17T11:21:44;5.35;;;1.42;;
25123;SDS011;13104;51.030;4.686;2022-09-17T11:24:23;6.18;;;1.02;;
25123;SDS011;13104;51.030;4.686;2022-09-17T11:32:09;8.90;;;4.20;;
25123;SDS011;13104;51.030;4.686;2022-09-17T11:42:12;5.93;;;1.55;;
25123;SDS011;13104;51.030;4.686;2022-09-17T11:44:45;6.50;;;2.60;;
25123;SDS011;13104;51.030;4.686;2022-09-17T11:47:18;5.10;;;1.90;;
25123;SDS011;13104;51.030;4.686;2022-09-17T11:49:46;6.68;;;1.23;;
25123;SDS011;13104;51.030;4.686;2022-09-17T11:57:20;7.55;;;1.35;;
25123;SDS011;13104;51.030;4.686;2022-09-17T11:59:51;6.32;;;1.25;;
25123;SDS011;13104;51.030;4.686;2022-09-17T12:04:46;4.07;;;0.95;;
25123;SDS011;13104;51.030;4.686;2022-09-17T12:12:47;3.58;;;0.80;;
25123;SDS011;13104;51.030;4.686;2022-09-17T12:15:17;4.15;;;1.05;;
25123;SDS011;13104;51.030;4.686;2022-09-17T12:20:27;13.10;;;2.85;;
25123;SDS011;13104;51.030;4.686;2022-09-17T12:22:55;6.32;;;1.50;;
25123;SDS011;13104;51.030;4.686;2022-09-17T12:25:22;6.57;;;1.85;;
25123;SDS011;13104;51.030;4.686;2022-09-17T12:27:57;17.55;;;7.32;;
25123;SDS011;13104;51.030;4.686;2022-09-17T12:30:33;9.18;;;1.95;;
25123;SDS011;13104;51.030;4.686;2022-09-17T12:43:30;10.05;;;1.60;;
25123;SDS011;13104;51.030;4.686;2022-09-17T12:48:30;8.27;;;1.45;;
25123;SDS011;13104;51.030;4.686;2022-09-17T12:51:13;9.93;;;1.60;;
25123;SDS011;13104;51.030;4.686;2022-09-17T12:53:55;10.93;;;1.50;;
25123;SDS011;13104;51.030;4.686;2022-09-17T12:59:11;8.88;;;1.90;;
25123;SDS011;13104;51.030;4.686;2022-09-17T13:19:56;30.20;;;8.43;;
25123;SDS011;13104;51.030;4.686;2022-09-17T13:22:26;19.80;;;4.07;;
25123;SDS011;13104;51.030;4.686;2022-09-17T13:25:09;13.23;;;2.22;;
25123;SDS011;13104;51.030;4.686;2022-09-17T13:27:36;10.73;;;2.10;;
25123;SDS011;13104;51.030;4.686;2022-09-17T13:30:06;12.07;;;2.20;;
25123;SDS011;13104;51.030;4.686;2022-09-17T13:37:30;16.13;;;2.15;;
25123;SDS011;13104;51.030;4.686;2022-09-17T13:39:56;16.60;;;2.00;;
25123;SDS011;13104;51.030;4.686;2022-09-17T13:45:00;10.50;;;1.90;;
25123;SDS011;13104;51.030;4.686;2022-09-17T13:47:31;15.30;;;2.38;;
25123;SDS011;13104;51.030;4.686;2022-09-17T13:50:02;14.07;;;1.70;;
25123;SDS011;13104;51.030;4.686;2022-09-17T13:52:33;15.27;;;2.00;;
25123;SDS011;13104;51.030;4.686;2022-09-17T13:55:00;7.82;;;1.73;;
25123;SDS011;13104;51.030;4.686;2022-09-17T13:57:27;7.85;;;1.23;;
25123;SDS011;13104;51.030;4.686;2022-09-17T13:59:56;8.55;;;1.30;;
25123;SDS011;13104;51.030;4.686;2022-09-17T14:04:52;7.75;;;1.45;;
25123;SDS011;13104;51.030;4.686;2022-09-17T14:09:57;5.10;;;1.15;;
25123;SDS011;13104;51.030;4.686;2022-09-17T14:15:34;4.15;;;0.70;;
25123;SDS011;13104;51.030;4.686;2022-09-17T14:18:01;13.35;;;1.33;;
25123;SDS011;13104;51.030;4.686;2022-09-17T14:20:47;9.18;;;1.27;;
25123;SDS011;13104;51.030;4.686;2022-09-17T14:23:13;5.63;;;0.98;;
25123;SDS011;13104;51.030;4.686;2022-09-17T14:25:41;8.88;;;1.38;;
25123;SDS011;13104;51.030;4.686;2022-09-17T14:29:12;7.65;;;1.90;;
25123;SDS011;13104;51.030;4.686;2022-09-17T14:31:12;14.52;;;2.00;;
25123;SDS011;13104;51.030;4.686;2022-09-17T14:33:42;13.35;;;1.73;;
25123;SDS011;13104;51.030;4.686;2022-09-17T14:36:09;9.60;;;1.40;;
25123;SDS011;13104;51.030;4.686;2022-09-17T14:38:37;8.93;;;1.27;;
25123;SDS011;13104;51.030;4.686;2022-09-17T14:46:24;7.88;;;1.20;;
25123;SDS011;13104;51.030;4.686;2022-09-17T14:48:52;13.70;;;1.52;;
25123;SDS011;13104;51.030;4.686;2022-09-17T14:53:45;6.82;;;1.00;;
25123;SDS011;13104;51.030;4.686;2022-09-17T14:56:20;6.88;;;1.23;;
25123;SDS011;13104;51.030;4.686;2022-09-17T14:58:51;9.50;;;1.02;;
25123;SDS011;13104;51.030;4.686;2022-09-17T15:01:21;8.38;;;1.13;;
25123;SDS011;13104;51.030;4.686;2022-09-17T15:03:48;3.40;;;1.02;;
25123;SDS011;13104;51.030;4.686;2022-09-17T15:06:21;2.95;;;0.88;;
25123;SDS011;13104;51.030;4.686;2022-09-17T15:08:47;2.70;;;0.77;;
25123;SDS011;13104;51.030;4.686;2022-09-17T15:11:13;7.93;;;1.13;;
25123;SDS011;13104;51.030;4.686;2022-09-17T15:13:49;8.93;;;1.02;;
25123;SDS011;13104;51.030;4.686;2022-09-17T15:16:20;7.57;;;1.05;;
25123;SDS011;13104;51.030;4.686;2022-09-17T15:18:48;4.60;;;1.08;;
25123;SDS011;13104;51.030;4.686;2022-09-17T15:26:55;5.40;;;1.02;;
25123;SDS011;13104;51.030;4.686;2022-09-17T15:29:24;6.22;;;1.40;;
25123;SDS011;13104;51.030;4.686;2022-09-17T15:31:52;6.18;;;1.23;;
25123;SDS011;13104;51.030;4.686;2022-09-17T15:34:18;10.20;;;1.30;;
25123;SDS011;13104;51.030;4.686;2022-09-17T15:39:31;13.45;;;1.60;;
25123;SDS011;13104;51.030;4.686;2022-09-17T15:42:02;8.82;;;1.42;;
25123;SDS011;13104;51.030;4.686;2022-09-17T15:44:29;8.32;;;1.42;;
25123;SDS011;13104;51.030;4.686;2022-09-17T15:47:20;13.85;;;1.83;;
25123;SDS011;13104;51.030;4.686;2022-09-17T15:49:41;11.52;;;1.58;;
25123;SDS011;13104;51.030;4.686;2022-09-17T15:52:27;7.35;;;1.10;;
25123;SDS011;13104;51.030;4.686;2022-09-17T15:54:56;9.40;;;1.25;;
25123;SDS011;13104;51.030;4.686;2022-09-17T15:57:22;7.78;;;1.17;;
25123;SDS011;13104;51.030;4.686;2022-09-17T15:59:49;7.15;;;1.33;;
25123;SDS011;13104;51.030;4.686;2022-09-17T16:02:26;7.25;;;1.42;;
25123;SDS011;13104;51.030;4.686;2022-09-17T16:07:34;9.25;;;2.30;;
25123;SDS011;13104;51.030;4.686;2022-09-17T16:10:00;11.20;;;2.17;;
25123;SDS011;13104;51.030;4.686;2022-09-17T16:12:26;13.13;;;1.95;;
25123;SDS011;13104;51.030;4.686;2022-09-17T16:14:53;11.35;;;1.88;;
25123;SDS011;13104;51.030;4.686;2022-09-17T16:19:46;9.20;;;1.92;;
25123;SDS011;13104;51.030;4.686;2022-09-17T16:22:12;16.27;;;2.10;;
25123;SDS011;13104;51.030;4.686;2022-09-17T16:24:38;12.20;;;2.15;;
25123;SDS011;13104;51.030;4.686;2022-09-17T16:27:05;7.18;;;1.30;;
25123;SDS011;13104;51.030;4.686;2022-09-17T16:29:31;14.35;;;1.63;;
25123;SDS011;13104;51.030;4.686;2022-09-17T16:31:57;10.70;;;1.50;;
25123;SDS011;13104;51.030;4.686;2022-09-17T16:34:23;9.93;;;1.45;;
25123;SDS011;13104;51.030;4.686;2022-09-17T16:36:49;9.07;;;1.80;;
25123;SDS011;13104;51.030;4.686;2022-09-17T16:39:15;15.13;;;2.58;;
25123;SDS011;13104;51.030;4.686;2022-09-17T16:41:42;10.30;;;1.70;;
25123;SDS011;13104;51.030;4.686;2022-09-17T16:44:08;9.13;;;1.95;;
25123;SDS011;13104;51.030;4.686;2022-09-17T16:46:34;11.70;;;2.15;;
25123;SDS011;13104;51.030;4.686;2022-09-17T16:49:00;8.05;;;1.65;;
25123;SDS011;13104;51.030;4.686;2022-09-17T16:51:26;9.77;;;1.60;;
25123;SDS011;13104;51.030;4.686;2022-09-17T16:53:52;10.88;;;1.92;;
25123;SDS011;13104;51.030;4.686;2022-09-17T16:56:21;9.35;;;1.73;;
25123;SDS011;13104;51.030;4.686;2022-09-17T16:58:52;6.95;;;1.75;;
25123;SDS011;13104;51.030;4.686;2022-09-17T17:01:18;10.32;;;1.83;;
25123;SDS011;13104;51.030;4.686;2022-09-17T17:03:44;12.52;;;1.50;;
25123;SDS011;13104;51.030;4.686;2022-09-17T17:06:19;9.10;;;2.40;;
25123;SDS011;13104;51.030;4.686;2022-09-17T17:08:46;10.98;;;3.03;;
25123;SDS011;13104;51.030;4.686;2022-09-17T17:11:12;14.57;;;4.72;;
25123;SDS011;13104;51.030;4.686;2022-09-17T17:13:38;17.00;;;6.80;;
25123;SDS011;13104;51.030;4.686;2022-09-17T17:16:07;15.25;;;7.88;;
25123;SDS011;13104;51.030;4.686;2022-09-17T17:18:33;13.70;;;2.90;;
25123;SDS011;13104;51.030;4.686;2022-09-17T17:21:06;57.50;;;30.45;;
25123;SDS011;13104;51.030;4.686;2022-09-17T17:23:33;48.85;;;29.58;;
25123;SDS011;13104;51.030;4.686;2022-09-17T17:25:59;34.30;;;22.75;;
25123;SDS011;13104;51.030;4.686;2022-09-17T17:28:26;23.27;;;14.55;;
25123;SDS011;13104;51.030;4.686;2022-09-17T17:30:52;15.70;;;6.82;;
25123;SDS011;13104;51.030;4.686;2022-09-17T17:33:18;8.18;;;2.03;;
25123;SDS011;13104;51.030;4.686;2022-09-17T17:35:44;23.85;;;15.82;;
25123;SDS011;13104;51.030;4.686;2022-09-17T17:38:10;17.05;;;5.20;;
25123;SDS011;13104;51.030;4.686;2022-09-17T17:40:36;22.88;;;13.40;;
25123;SDS011;13104;51.030;4.686;2022-09-17T17:43:02;22.30;;;12.23;;
25123;SDS011;13104;51.030;4.686;2022-09-17T17:45:28;77.43;;;44.22;;
25123;SDS011;13104;51.030;4.686;2022-09-17T17:47:55;43.95;;;26.58;;
25123;SDS011;13104;51.030;4.686;2022-09-17T17:50:21;21.90;;;10.20;;
25123;SDS011;13104;51.030;4.686;2022-09-17T17:52:47;35.83;;;19.70;;
25123;SDS011;13104;51.030;4.686;2022-09-17T17:55:14;24.80;;;10.88;;
25123;SDS011;13104;51.030;4.686;2022-09-17T17:57:41;15.25;;;7.85;;
25123;SDS011;13104;51.030;4.686;2022-09-17T18:00:07;23.98;;;13.30;;
25123;SDS011;13104;51.030;4.686;2022-09-17T18:02:35;9.80;;;4.43;;
25123;SDS011;13104;51.030;4.686;2022-09-17T18:05:01;20.63;;;12.20;;
25123;SDS011;13104;51.030;4.686;2022-09-17T18:07:28;7.53;;;1.77;;
25123;SDS011;13104;51.030;4.686;2022-09-17T18:09:54;15.38;;;3.83;;
25123;SDS011;13104;51.030;4.686;2022-09-17T18:12:20;6.13;;;2.38;;
25123;SDS011;13104;51.030;4.686;2022-09-17T18:14:46;13.98;;;4.22;;
25123;SDS011;13104;51.030;4.686;2022-09-17T18:17:12;17.23;;;13.45;;
25123;SDS011;13104;51.030;4.686;2022-09-17T18:19:38;13.55;;;7.00;;